METAR Data
IDs: Format: Raw Decoded Include TAF

Data at: 0624 UTC 23 Feb 2019

KPKV 230615Z AUTO 00000KT 1/4SM FG OVC001 17/17 A2984 RMK AO2 T01720167
KPKV 230555Z AUTO 00000KT 1/4SM FG OVC001 17/17 A2985 RMK AO2 T01710166 10171 20161 401710122
KPKV 230535Z AUTO 00000KT 1/4SM FG OVC001 17/17 A2985 RMK AO2 T01700165
KPKV 230515Z AUTO 00000KT 1/4SM FG OVC001 17/16 A2986 RMK AO2 T01680163
KPKV 230455Z AUTO 00000KT 1/4SM FG OVC001 17/16 A2986 RMK AO2 T01670162
KPKV 230435Z AUTO 00000KT 1/4SM FG OVC001 17/16 A2986 RMK AO2 T01670162
KPKV 230415Z AUTO 00000KT 1/4SM FG OVC001 17/16 A2986 RMK AO2 T01660161
KPKV 230355Z AUTO 00000KT 1/4SM FG OVC001 17/16 A2987 RMK AO2 T01650160
KPKV 230335Z AUTO 00000KT 1/2SM FG OVC001 17/16 A2987 RMK AO2 T01650160
KPKV 230315Z AUTO 00000KT 1/2SM FG OVC001 16/16 A2987 RMK AO2 T01630158
KPKV 230255Z AUTO 00000KT 1/2SM FG OVC001 16/16 A2988 RMK AO2 T01630158
KPKV 230235Z AUTO 00000KT 1/2SM FG OVC001 16/16 A2988 RMK AO2 T01620157
KPKV 230215Z AUTO 00000KT 1/2SM FG OVC001 16/16 A2988 RMK AO2 T01630158
KPKV 230155Z AUTO 00000KT 1/2SM FG OVC001 16/16 A2988 RMK AO2 T01630158
KPKV 230135Z AUTO 00000KT 1/2SM FG OVC001 16/16 A2987 RMK AO2 T01620157
KPKV 230115Z AUTO 00000KT 1/2SM FG OVC001 16/16 A2987 RMK AO2 T01620156
KPKV 230055Z AUTO 02003KT 1/2SM FG OVC001 16/16 A2987 RMK AO2 T01610155
KPKV 230035Z AUTO 00000KT 1/2SM FG OVC001 16/16 A2987 RMK AO2 T01610155
KPKV 230015Z AUTO 00000KT 1/2SM FG OVC001 16/16 A2987 RMK AO2 T01610155
KPKV 222355Z AUTO 01006KT 1/4SM FG OVC001 16/16 A2987 RMK AO2 T01610155 10167 20153
KPKV 222335Z AUTO 00000KT 1/4SM FG OVC001 16/16 A2986 RMK AO2 T01630157
KPKV 222315Z AUTO 00000KT 1/2SM FG OVC001 17/16 A2987 RMK AO2 T01650159
KPKV 222255Z AUTO 36007KT 1/2SM FG OVC001 17/16 A2987 RMK AO2 T01650158
KPKV 222235Z AUTO 35006KT 1/2SM FG OVC001 17/16 A2987 RMK AO2 T01650158
KPKV 222215Z AUTO 36007KT 1/2SM FG OVC001 17/16 A2986 RMK AO2 T01650160
KPKV 222155Z AUTO 00000KT 3/4SM BR OVC001 17/16 A2986 RMK AO2 T01660161
KPKV 222135Z AUTO 00000KT 1/2SM FG OVC001 17/16 A2986 RMK AO2 T01660161
KPKV 222115Z AUTO 00000KT 1/2SM FG OVC001 17/16 A2986 RMK AO2 T01650160
KPKV 222055Z AUTO 00000KT 1/2SM FG OVC001 16/16 A2986 RMK AO2 T01640159
KPKV 222035Z AUTO 00000KT 1/2SM FG OVC001 16/16 A2987 RMK AO2 T01620157
KPKV 222015Z AUTO 00000KT 1/4SM FG OVC001 16/16 A2988 RMK AO2 T01630158
KPKV 221955Z AUTO 00000KT 1/4SM FG OVC001 16/16 A2988 RMK AO2 T01610156
KPKV 221930Z AUTO 00000KT 1/4SM FG OVC001 16/15 A2989 RMK AO2 T01580153
KPKV 221915Z AUTO 00000KT 1/4SM FG OVC001 16/15 A2990 RMK AO2 T01560151
KPKV 221850Z AUTO 00000KT 1/4SM FG OVC001 15/15 A2992 RMK AO2 T01540149
KPKV 221835Z AUTO 34005KT 1/4SM FG OVC001 16/15 A2993 RMK AO2 T01550150
KPKV 221815Z AUTO 32007KT 1/4SM FG OVC001 16/15 A2994 RMK AO2 T01550150
KPKV 221755Z AUTO 34005KT 1/4SM FG OVC001 16/15 A2994 RMK AO2 T01550150 10155 20125
KPKV 221735Z AUTO 35004KT 1/4SM FG OVC001 16/15 A2994 RMK AO2 T01550150
KPKV 221715Z AUTO 00000KT 1/4SM FG OVC001 15/15 A2995 RMK AO2 T01520147
KPKV 221700Z AUTO 33004KT 1/4SM FG OVC001 15/15 A2995 RMK AO2 T01500145
KPKV 221615Z AUTO 01003KT 1/4SM FG OVC001 14/14 A2995 RMK AO2 T01420137
KPKV 221555Z AUTO 03003KT 1/4SM FG OVC001 14/14 A2995 RMK AO2 T01410136
KPKV 221535Z AUTO 02004KT 1/4SM FG OVC001 14/13 A2995 RMK AO2 T01380132
KPKV 221455Z AUTO 04005KT 1/4SM FG OVC001 14/13 A2995 RMK AO2 T01360131
KPKV 221430Z AUTO 03005KT 1/4SM FG OVC001 13/13 A2994 RMK AO2 T01320127
KPKV 221420Z AUTO 03004KT 1/4SM FG OVC003 13/13 A2994 RMK AO2 T01320126
KPKV 220835Z AUTO 02010KT 1SM BR OVC001 13/12 A2993 RMK AO2 T01270121
KPKV 220815Z AUTO 02008KT 1SM BR OVC001 13/12 A2992 RMK AO2 T01280122
KPKV 220755Z AUTO 02008KT 1SM BR OVC001 13/13 A2993 RMK AO2 T01300125
KPKV 220740Z AUTO 02008KT 1 1/4SM BR OVC001 13/13 A2992 RMK AO2 T01310125
KPKV 220715Z AUTO 02007KT 3/4SM BR OVC001 13/13 A2993 RMK AO2 T01310125
KPKV 220655Z AUTO 01006KT 3/4SM BR OVC001 13/13 A2993 RMK AO2 T01320126
KPKV 220635Z AUTO 36008KT 3/4SM BR OVC001 13/13 A2993 RMK AO2 T01330127
KPKV 220615Z AUTO 01007KT 3/4SM BR OVC001 13/13 A2993 RMK AO2 T01330127
KPKV 220555Z AUTO 36007KT 1SM BR OVC003 14/13 A2993 RMK AO2 T01350130 10140 20134 401530134
KPKV 220540Z AUTO 01007KT 1 1/2SM BR OVC003 14/13 A2993 RMK AO2 T01350130
KPKV 220515Z AUTO 03006KT 1 1/2SM BR OVC003 14/13 A2992 RMK AO2 T01360130
KPKV 220455Z AUTO 05008KT 1 1/4SM BR OVC003 14/13 A2992 RMK AO2 T01360130
KPKV 220435Z AUTO 06008KT 2 1/2SM BR OVC003 14/13 A2991 RMK AO2 T01360130
KPKV 220415Z AUTO 05008KT 1 3/4SM BR OVC003 14/13 A2991 RMK AO2 T01350128
KPKV 220355Z AUTO 06010KT 1 3/4SM BR OVC003 14/13 A2991 RMK AO2 T01350127
KPKV 220335Z AUTO 05010KT 2 1/2SM BR OVC003 13/13 A2991 RMK AO2 T01340125
KPKV 220315Z AUTO 03009KT 4SM BR OVC003 14/13 A2991 RMK AO2 T01350125
KPKV 220250Z AUTO 03011KT 7SM OVC005 14/13 A2991 RMK AO2 T01350125
KPKV 220210Z AUTO 03009KT 10SM OVC005 14/12 A2990 RMK AO2 T01360123
KPKV 220150Z AUTO 04011KT 10SM OVC005 14/12 A2988 RMK AO2 T01360122
KPKV 212015Z AUTO 02008KT 7SM OVC005 15/13 A2987 RMK AO2 T01470130
KPKV 211955Z AUTO 02009KT 5SM BR OVC005 14/13 A2987 RMK AO2 T01420127
KPKV 211935Z AUTO 01009KT 4SM BR OVC007 14/13 A2988 RMK AO2 T01390127
KPKV 211915Z AUTO 01009KT 2 1/2SM BR SCT005 OVC009 14/13 A2989 RMK AO2 T01370126
KPKV 211855Z AUTO 02007KT 2SM -DZ OVC009 14/13 A2990 RMK AO2 T01370125
KPKV 211835Z AUTO 36007KT 4SM -DZ OVC009 14/12 A2991 RMK AO2 T01380122